sensor_id;sensor_type;location;lat;lon;timestamp;temperature;humidity
13412;DHT22;67102;51.666;6.880;2023-02-16T00:01:23;11.00;63.10
13412;DHT22;67102;51.666;6.880;2023-02-16T00:03:53;11.00;63.40
13412;DHT22;67102;51.666;6.880;2023-02-16T00:06:21;10.90;63.20
13412;DHT22;67102;51.666;6.880;2023-02-16T00:08:49;10.90;63.10
13412;DHT22;67102;51.666;6.880;2023-02-16T00:11:19;11.00;63.10
13412;DHT22;67102;51.666;6.880;2023-02-16T00:13:48;10.90;63.30
13412;DHT22;67102;51.666;6.880;2023-02-16T00:16:16;10.80;63.30
13412;DHT22;67102;51.666;6.880;2023-02-16T00:18:43;10.80;63.30
13412;DHT22;67102;51.666;6.880;2023-02-16T00:21:09;10.70;63.20
13412;DHT22;67102;51.666;6.880;2023-02-16T00:23:35;10.80;63.30
13412;DHT22;67102;51.666;6.880;2023-02-16T00:26:01;10.70;64.30
13412;DHT22;67102;51.666;6.880;2023-02-16T00:28:27;10.80;63.80
13412;DHT22;67102;51.666;6.880;2023-02-16T00:30:54;10.60;63.80
13412;DHT22;67102;51.666;6.880;2023-02-16T00:33:20;10.60;64.10
13412;DHT22;67102;51.666;6.880;2023-02-16T00:35:47;10.60;64.00
13412;DHT22;67102;51.666;6.880;2023-02-16T00:38:13;10.50;64.20
13412;DHT22;67102;51.666;6.880;2023-02-16T00:40:41;10.50;64.20
13412;DHT22;67102;51.666;6.880;2023-02-16T00:43:08;10.50;64.30
13412;DHT22;67102;51.666;6.880;2023-02-16T00:45:36;10.50;64.20
13412;DHT22;67102;51.666;6.880;2023-02-16T00:48:04;10.40;64.40
13412;DHT22;67102;51.666;6.880;2023-02-16T00:50:31;10.40;64.60
13412;DHT22;67102;51.666;6.880;2023-02-16T00:52:58;10.40;64.70
13412;DHT22;67102;51.666;6.880;2023-02-16T00:55:28;10.40;64.60
13412;DHT22;67102;51.666;6.880;2023-02-16T00:58:00;10.30;64.80
13412;DHT22;67102;51.666;6.880;2023-02-16T01:00:32;10.30;65.20
13412;DHT22;67102;51.666;6.880;2023-02-16T01:03:01;10.30;65.20
13412;DHT22;67102;51.666;6.880;2023-02-16T01:05:29;10.20;64.90
13412;DHT22;67102;51.666;6.880;2023-02-16T01:07:56;10.20;64.70
13412;DHT22;67102;51.666;6.880;2023-02-16T01:10:23;10.20;64.90
13412;DHT22;67102;51.666;6.880;2023-02-16T01:12:49;10.20;65.00
13412;DHT22;67102;51.666;6.880;2023-02-16T01:15:18;10.20;64.90
13412;DHT22;67102;51.666;6.880;2023-02-16T01:17:47;10.10;64.90
13412;DHT22;67102;51.666;6.880;2023-02-16T01:20:15;10.10;64.80
13412;DHT22;67102;51.666;6.880;2023-02-16T01:22:42;10.10;64.90
13412;DHT22;67102;51.666;6.880;2023-02-16T01:25:09;10.10;64.60
13412;DHT22;67102;51.666;6.880;2023-02-16T01:27:36;10.10;64.70
13412;DHT22;67102;51.666;6.880;2023-02-16T01:30:02;10.10;64.70
13412;DHT22;67102;51.666;6.880;2023-02-16T01:32:29;10.10;64.70
13412;DHT22;67102;51.666;6.880;2023-02-16T01:34:55;10.00;64.60
13412;DHT22;67102;51.666;6.880;2023-02-16T01:37:22;10.00;64.60
13412;DHT22;67102;51.666;6.880;2023-02-16T01:39:48;10.00;64.90
13412;DHT22;67102;51.666;6.880;2023-02-16T01:42:23;10.00;64.70
13412;DHT22;67102;51.666;6.880;2023-02-16T01:44:58;9.90;64.90
13412;DHT22;67102;51.666;6.880;2023-02-16T01:47:36;9.90;64.80
13412;DHT22;67102;51.666;6.880;2023-02-16T01:50:25;9.90;65.30
13412;DHT22;67102;51.666;6.880;2023-02-16T01:52:55;9.90;65.70
13412;DHT22;67102;51.666;6.880;2023-02-16T01:55:24;9.80;65.00
13412;DHT22;67102;51.666;6.880;2023-02-16T01:57:57;9.80;65.00
13412;DHT22;67102;51.666;6.880;2023-02-16T02:00:27;9.80;65.30
13412;DHT22;67102;51.666;6.880;2023-02-16T02:02:56;9.80;65.50
13412;DHT22;67102;51.666;6.880;2023-02-16T02:05:26;9.70;65.40
13412;DHT22;67102;51.666;6.880;2023-02-16T02:07:57;9.70;65.60
13412;DHT22;67102;51.666;6.880;2023-02-16T02:10:29;9.70;65.80
13412;DHT22;67102;51.666;6.880;2023-02-16T02:13:03;9.70;65.90
13412;DHT22;67102;51.666;6.880;2023-02-16T02:15:32;9.70;66.10
13412;DHT22;67102;51.666;6.880;2023-02-16T02:18:00;9.70;65.70
13412;DHT22;67102;51.666;6.880;2023-02-16T02:20:34;9.60;66.60
13412;DHT22;67102;51.666;6.880;2023-02-16T02:23:23;9.60;66.10
13412;DHT22;67102;51.666;6.880;2023-02-16T02:29:37;9.60;66.60
13412;DHT22;67102;51.666;6.880;2023-02-16T02:32:16;9.60;66.20
13412;DHT22;67102;51.666;6.880;2023-02-16T02:34:58;9.60;66.10
13412;DHT22;67102;51.666;6.880;2023-02-16T02:37:38;9.60;66.20
13412;DHT22;67102;51.666;6.880;2023-02-16T02:40:11;9.60;66.20
13412;DHT22;67102;51.666;6.880;2023-02-16T02:42:50;9.60;66.00
13412;DHT22;67102;51.666;6.880;2023-02-16T02:45:23;9.60;66.20
13412;DHT22;67102;51.666;6.880;2023-02-16T02:47:52;9.50;65.90
13412;DHT22;67102;51.666;6.880;2023-02-16T02:50:33;9.60;65.90
13412;DHT22;67102;51.666;6.880;2023-02-16T02:53:09;9.50;66.40
13412;DHT22;67102;51.666;6.880;2023-02-16T02:55:39;9.50;66.10
13412;DHT22;67102;51.666;6.880;2023-02-16T02:58:10;9.50;65.90
13412;DHT22;67102;51.666;6.880;2023-02-16T03:00:38;9.50;66.00
13412;DHT22;67102;51.666;6.880;2023-02-16T03:03:09;9.50;66.10
13412;DHT22;67102;51.666;6.880;2023-02-16T03:05:38;9.50;66.40
13412;DHT22;67102;51.666;6.880;2023-02-16T03:08:09;9.50;66.30
13412;DHT22;67102;51.666;6.880;2023-02-16T03:10:36;9.40;66.40
13412;DHT22;67102;51.666;6.880;2023-02-16T03:13:05;9.40;66.40
13412;DHT22;67102;51.666;6.880;2023-02-16T03:15:39;9.40;66.60
13412;DHT22;67102;51.666;6.880;2023-02-16T03:18:06;9.40;66.50
13412;DHT22;67102;51.666;6.880;2023-02-16T03:20:33;9.40;66.50
13412;DHT22;67102;51.666;6.880;2023-02-16T03:23:00;9.40;66.60
13412;DHT22;67102;51.666;6.880;2023-02-16T03:25:30;9.40;66.60
13412;DHT22;67102;51.666;6.880;2023-02-16T03:27:59;9.50;66.80
13412;DHT22;67102;51.666;6.880;2023-02-16T03:30:26;9.40;66.60
13412;DHT22;67102;51.666;6.880;2023-02-16T03:32:54;9.40;66.60
13412;DHT22;67102;51.666;6.880;2023-02-16T03:35:20;9.40;66.50
13412;DHT22;67102;51.666;6.880;2023-02-16T03:37:46;9.40;66.40
13412;DHT22;67102;51.666;6.880;2023-02-16T03:40:15;9.40;66.50
13412;DHT22;67102;51.666;6.880;2023-02-16T03:42:48;9.30;66.70
13412;DHT22;67102;51.666;6.880;2023-02-16T03:45:14;9.30;67.00
13412;DHT22;67102;51.666;6.880;2023-02-16T03:47:40;9.30;66.60
13412;DHT22;67102;51.666;6.880;2023-02-16T03:50:08;9.30;66.70
13412;DHT22;67102;51.666;6.880;2023-02-16T03:52:34;9.30;66.90
13412;DHT22;67102;51.666;6.880;2023-02-16T03:55:00;9.30;66.80
13412;DHT22;67102;51.666;6.880;2023-02-16T03:57:27;9.30;66.70
13412;DHT22;67102;51.666;6.880;2023-02-16T03:59:52;9.30;66.70
13412;DHT22;67102;51.666;6.880;2023-02-16T04:02:18;9.30;66.70
13412;DHT22;67102;51.666;6.880;2023-02-16T04:04:44;9.30;66.40
13412;DHT22;67102;51.666;6.880;2023-02-16T04:07:12;9.30;66.80
13412;DHT22;67102;51.666;6.880;2023-02-16T04:09:38;9.30;66.90
13412;DHT22;67102;51.666;6.880;2023-02-16T04:12:05;9.30;66.80
13412;DHT22;67102;51.666;6.880;2023-02-16T04:14:32;9.30;66.80
13412;DHT22;67102;51.666;6.880;2023-02-16T04:16:58;9.30;66.80
13412;DHT22;67102;51.666;6.880;2023-02-16T04:19:24;9.40;66.90
13412;DHT22;67102;51.666;6.880;2023-02-16T04:21:50;9.30;66.90
13412;DHT22;67102;51.666;6.880;2023-02-16T04:24:17;9.30;66.80
13412;DHT22;67102;51.666;6.880;2023-02-16T04:26:43;9.20;66.90
13412;DHT22;67102;51.666;6.880;2023-02-16T04:29:09;9.20;66.90
13412;DHT22;67102;51.666;6.880;2023-02-16T04:31:35;9.30;67.10
13412;DHT22;67102;51.666;6.880;2023-02-16T04:34:01;9.30;67.00
13412;DHT22;67102;51.666;6.880;2023-02-16T04:36:27;9.30;67.10
13412;DHT22;67102;51.666;6.880;2023-02-16T04:38:52;9.20;67.10
13412;DHT22;67102;51.666;6.880;2023-02-16T04:41:20;9.30;67.10
13412;DHT22;67102;51.666;6.880;2023-02-16T04:43:46;9.20;67.10
13412;DHT22;67102;51.666;6.880;2023-02-16T04:46:12;9.30;67.00
13412;DHT22;67102;51.666;6.880;2023-02-16T04:48:38;9.90;67.40
13412;DHT22;67102;51.666;6.880;2023-02-16T04:51:04;9.20;67.10
13412;DHT22;67102;51.666;6.880;2023-02-16T04:53:30;9.20;67.10
13412;DHT22;67102;51.666;6.880;2023-02-16T04:55:56;9.20;67.10
13412;DHT22;67102;51.666;6.880;2023-02-16T04:58:24;9.20;67.10
13412;DHT22;67102;51.666;6.880;2023-02-16T05:00:49;9.20;68.30
13412;DHT22;67102;51.666;6.880;2023-02-16T05:03:16;9.20;67.30
13412;DHT22;67102;51.666;6.880;2023-02-16T05:05:42;9.20;67.30
13412;DHT22;67102;51.666;6.880;2023-02-16T05:08:08;9.20;67.50
13412;DHT22;67102;51.666;6.880;2023-02-16T05:10:34;9.20;67.40
13412;DHT22;67102;51.666;6.880;2023-02-16T05:13:00;9.20;67.40
13412;DHT22;67102;51.666;6.880;2023-02-16T05:15:27;9.20;67.50
13412;DHT22;67102;51.666;6.880;2023-02-16T05:17:53;9.30;67.60
13412;DHT22;67102;51.666;6.880;2023-02-16T05:20:19;9.20;67.50
13412;DHT22;67102;51.666;6.880;2023-02-16T05:22:45;9.20;67.30
13412;DHT22;67102;51.666;6.880;2023-02-16T05:25:11;9.20;67.20
13412;DHT22;67102;51.666;6.880;2023-02-16T05:27:37;9.20;67.20
13412;DHT22;67102;51.666;6.880;2023-02-16T05:30:04;9.30;67.30
13412;DHT22;67102;51.666;6.880;2023-02-16T05:32:32;9.20;67.40
13412;DHT22;67102;51.666;6.880;2023-02-16T05:34:58;9.30;67.60
13412;DHT22;67102;51.666;6.880;2023-02-16T05:37:24;9.20;67.60
13412;DHT22;67102;51.666;6.880;2023-02-16T05:39:50;9.30;67.60
13412;DHT22;67102;51.666;6.880;2023-02-16T05:42:16;9.30;67.60
13412;DHT22;67102;51.666;6.880;2023-02-16T05:44:42;9.30;67.60
13412;DHT22;67102;51.666;6.880;2023-02-16T05:47:08;9.30;67.60
13412;DHT22;67102;51.666;6.880;2023-02-16T05:49:35;9.30;67.90
13412;DHT22;67102;51.666;6.880;2023-02-16T05:52:01;9.30;68.00
13412;DHT22;67102;51.666;6.880;2023-02-16T05:54:27;9.30;68.10
13412;DHT22;67102;51.666;6.880;2023-02-16T05:56:53;9.30;68.30
13412;DHT22;67102;51.666;6.880;2023-02-16T05:59:19;9.30;68.40
13412;DHT22;67102;51.666;6.880;2023-02-16T06:01:46;9.30;68.50
13412;DHT22;67102;51.666;6.880;2023-02-16T06:04:12;9.40;68.70
13412;DHT22;67102;51.666;6.880;2023-02-16T06:06:40;9.40;68.70
13412;DHT22;67102;51.666;6.880;2023-02-16T06:09:07;9.40;68.90
13412;DHT22;67102;51.666;6.880;2023-02-16T06:11:34;9.40;68.80
13412;DHT22;67102;51.666;6.880;2023-02-16T06:14:00;9.50;68.80
13412;DHT22;67102;51.666;6.880;2023-02-16T06:16:27;9.50;69.00
13412;DHT22;67102;51.666;6.880;2023-02-16T06:18:53;10.50;69.80
13412;DHT22;67102;51.666;6.880;2023-02-16T06:21:19;9.60;69.30
13412;DHT22;67102;51.666;6.880;2023-02-16T06:23:47;9.60;69.20
13412;DHT22;67102;51.666;6.880;2023-02-16T06:26:13;9.70;69.30
13412;DHT22;67102;51.666;6.880;2023-02-16T06:28:39;9.70;69.20
13412;DHT22;67102;51.666;6.880;2023-02-16T06:31:05;9.80;69.20
13412;DHT22;67102;51.666;6.880;2023-02-16T06:33:31;9.80;69.00
13412;DHT22;67102;51.666;6.880;2023-02-16T06:35:57;9.90;69.20
13412;DHT22;67102;51.666;6.880;2023-02-16T06:38:23;9.90;69.20
13412;DHT22;67102;51.666;6.880;2023-02-16T06:40:52;9.90;69.30
13412;DHT22;67102;51.666;6.880;2023-02-16T06:43:19;9.90;69.50
13412;DHT22;67102;51.666;6.880;2023-02-16T06:45:45;9.90;69.30
13412;DHT22;67102;51.666;6.880;2023-02-16T06:48:11;10.00;69.30
13412;DHT22;67102;51.666;6.880;2023-02-16T06:50:37;10.00;69.30
13412;DHT22;67102;51.666;6.880;2023-02-16T06:53:03;10.00;69.30
13412;DHT22;67102;51.666;6.880;2023-02-16T06:55:29;10.20;69.30
13412;DHT22;67102;51.666;6.880;2023-02-16T06:57:56;10.20;69.30
13412;DHT22;67102;51.666;6.880;2023-02-16T07:00:22;10.10;69.20
13412;DHT22;67102;51.666;6.880;2023-02-16T07:02:48;10.20;69.20
13412;DHT22;67102;51.666;6.880;2023-02-16T07:05:14;10.20;69.20
13412;DHT22;67102;51.666;6.880;2023-02-16T07:07:40;10.30;69.20
13412;DHT22;67102;51.666;6.880;2023-02-16T07:10:07;10.30;69.20
13412;DHT22;67102;51.666;6.880;2023-02-16T07:12:33;10.30;69.10
13412;DHT22;67102;51.666;6.880;2023-02-16T07:15:01;10.40;69.00
13412;DHT22;67102;51.666;6.880;2023-02-16T07:17:27;10.40;68.80
13412;DHT22;67102;51.666;6.880;2023-02-16T07:19:53;10.40;68.70
13412;DHT22;67102;51.666;6.880;2023-02-16T07:22:19;10.70;68.90
13412;DHT22;67102;51.666;6.880;2023-02-16T07:24:45;10.50;68.70
13412;DHT22;67102;51.666;6.880;2023-02-16T07:27:11;10.50;68.60
13412;DHT22;67102;51.666;6.880;2023-02-16T07:29:37;10.50;68.50
13412;DHT22;67102;51.666;6.880;2023-02-16T07:32:04;10.50;68.50
13412;DHT22;67102;51.666;6.880;2023-02-16T07:34:30;10.60;68.50
13412;DHT22;67102;51.666;6.880;2023-02-16T07:36:57;10.60;68.50
13412;DHT22;67102;51.666;6.880;2023-02-16T07:39:22;10.60;68.60
13412;DHT22;67102;51.666;6.880;2023-02-16T07:41:48;10.60;68.70
13412;DHT22;67102;51.666;6.880;2023-02-16T07:44:14;10.60;68.70
13412;DHT22;67102;51.666;6.880;2023-02-16T07:46:40;10.60;68.70
13412;DHT22;67102;51.666;6.880;2023-02-16T07:49:07;10.60;68.80
13412;DHT22;67102;51.666;6.880;2023-02-16T07:51:33;10.70;69.00
13412;DHT22;67102;51.666;6.880;2023-02-16T07:53:59;10.70;69.00
13412;DHT22;67102;51.666;6.880;2023-02-16T07:56:28;10.80;69.20
13412;DHT22;67102;51.666;6.880;2023-02-16T07:58:56;10.80;69.30
13412;DHT22;67102;51.666;6.880;2023-02-16T08:01:24;10.80;69.20
13412;DHT22;67102;51.666;6.880;2023-02-16T08:03:50;10.90;69.20
13412;DHT22;67102;51.666;6.880;2023-02-16T08:06:19;11.00;69.30
13412;DHT22;67102;51.666;6.880;2023-02-16T08:08:45;11.00;69.20
13412;DHT22;67102;51.666;6.880;2023-02-16T08:11:13;11.10;69.30
13412;DHT22;67102;51.666;6.880;2023-02-16T08:13:40;11.10;69.40
13412;DHT22;67102;51.666;6.880;2023-02-16T08:16:07;11.20;69.50
13412;DHT22;67102;51.666;6.880;2023-02-16T08:18:33;11.30;69.50
13412;DHT22;67102;51.666;6.880;2023-02-16T08:21:06;11.40;69.50
13412;DHT22;67102;51.666;6.880;2023-02-16T08:23:34;11.50;69.70
13412;DHT22;67102;51.666;6.880;2023-02-16T08:26:07;11.60;69.70
13412;DHT22;67102;51.666;6.880;2023-02-16T08:28:33;11.70;69.60
13412;DHT22;67102;51.666;6.880;2023-02-16T08:31:02;11.70;69.30
13412;DHT22;67102;51.666;6.880;2023-02-16T08:33:28;11.80;68.90
13412;DHT22;67102;51.666;6.880;2023-02-16T08:35:53;11.90;68.60
13412;DHT22;67102;51.666;6.880;2023-02-16T08:38:19;11.90;68.40
13412;DHT22;67102;51.666;6.880;2023-02-16T08:40:49;12.00;68.20
13412;DHT22;67102;51.666;6.880;2023-02-16T08:43:15;12.00;68.10
13412;DHT22;67102;51.666;6.880;2023-02-16T08:45:43;12.00;67.90
13412;DHT22;67102;51.666;6.880;2023-02-16T08:48:08;12.00;67.70
13412;DHT22;67102;51.666;6.880;2023-02-16T08:50:34;12.00;67.60
13412;DHT22;67102;51.666;6.880;2023-02-16T08:53:00;12.00;67.60
13412;DHT22;67102;51.666;6.880;2023-02-16T08:55:26;12.00;67.60
13412;DHT22;67102;51.666;6.880;2023-02-16T08:57:54;12.10;67.70
13412;DHT22;67102;51.666;6.880;2023-02-16T09:00:20;12.00;67.50
13412;DHT22;67102;51.666;6.880;2023-02-16T09:02:46;12.10;67.80
13412;DHT22;67102;51.666;6.880;2023-02-16T09:05:12;12.10;67.90
13412;DHT22;67102;51.666;6.880;2023-02-16T09:07:38;12.20;68.10
13412;DHT22;67102;51.666;6.880;2023-02-16T09:10:04;12.20;68.20
13412;DHT22;67102;51.666;6.880;2023-02-16T09:12:31;12.30;68.40
13412;DHT22;67102;51.666;6.880;2023-02-16T09:14:58;12.30;68.40
13412;DHT22;67102;51.666;6.880;2023-02-16T09:17:24;12.40;68.40
13412;DHT22;67102;51.666;6.880;2023-02-16T09:19:50;12.50;68.40
13412;DHT22;67102;51.666;6.880;2023-02-16T09:22:16;12.70;68.60
13412;DHT22;67102;51.666;6.880;2023-02-16T09:24:42;12.70;68.70
13412;DHT22;67102;51.666;6.880;2023-02-16T09:27:08;12.80;69.00
13412;DHT22;67102;51.666;6.880;2023-02-16T09:29:34;12.90;69.10
13412;DHT22;67102;51.666;6.880;2023-02-16T09:32:01;13.20;68.40
13412;DHT22;67102;51.666;6.880;2023-02-16T09:34:27;13.20;68.20
13412;DHT22;67102;51.666;6.880;2023-02-16T09:36:53;13.40;68.10
13412;DHT22;67102;51.666;6.880;2023-02-16T09:39:19;13.50;67.80
13412;DHT22;67102;51.666;6.880;2023-02-16T09:42:01;13.70;67.40
13412;DHT22;67102;51.666;6.880;2023-02-16T09:44:39;13.70;66.20
13412;DHT22;67102;51.666;6.880;2023-02-16T09:47:15;13.80;65.60
13412;DHT22;67102;51.666;6.880;2023-02-16T09:49:46;13.90;65.40
13412;DHT22;67102;51.666;6.880;2023-02-16T09:52:16;13.80;66.20
13412;DHT22;67102;51.666;6.880;2023-02-16T09:54:47;13.90;65.10
13412;DHT22;67102;51.666;6.880;2023-02-16T09:57:21;13.90;64.90
13412;DHT22;67102;51.666;6.880;2023-02-16T09:59:52;14.00;64.90
13412;DHT22;67102;51.666;6.880;2023-02-16T10:02:33;14.00;64.60
13412;DHT22;67102;51.666;6.880;2023-02-16T10:05:15;13.90;64.20
13412;DHT22;67102;51.666;6.880;2023-02-16T10:07:52;13.90;64.10
13412;DHT22;67102;51.666;6.880;2023-02-16T10:10:24;13.90;63.70
13412;DHT22;67102;51.666;6.880;2023-02-16T10:12:58;13.90;63.70
13412;DHT22;67102;51.666;6.880;2023-02-16T10:15:28;13.80;63.80
13412;DHT22;67102;51.666;6.880;2023-02-16T10:17:58;13.70;63.90
13412;DHT22;67102;51.666;6.880;2023-02-16T10:20:30;13.70;63.70
13412;DHT22;67102;51.666;6.880;2023-02-16T10:23:04;13.60;63.90
13412;DHT22;67102;51.666;6.880;2023-02-16T10:25:39;13.60;64.20
13412;DHT22;67102;51.666;6.880;2023-02-16T10:28:15;13.60;64.30
13412;DHT22;67102;51.666;6.880;2023-02-16T10:30:46;13.50;64.50
13412;DHT22;67102;51.666;6.880;2023-02-16T10:33:19;13.50;64.90
13412;DHT22;67102;51.666;6.880;2023-02-16T10:35:57;13.50;65.00
13412;DHT22;67102;51.666;6.880;2023-02-16T10:38:32;13.50;65.10
13412;DHT22;67102;51.666;6.880;2023-02-16T10:41:08;13.50;66.00
13412;DHT22;67102;51.666;6.880;2023-02-16T10:43:42;13.60;65.50
13412;DHT22;67102;51.666;6.880;2023-02-16T10:46:11;13.60;65.50
13412;DHT22;67102;51.666;6.880;2023-02-16T10:48:43;15.50;66.70
13412;DHT22;67102;51.666;6.880;2023-02-16T10:51:11;13.60;65.60
13412;DHT22;67102;51.666;6.880;2023-02-16T10:53:43;13.60;65.70
13412;DHT22;67102;51.666;6.880;2023-02-16T10:59:19;13.80;65.40
13412;DHT22;67102;51.666;6.880;2023-02-16T11:01:47;13.80;65.60
13412;DHT22;67102;51.666;6.880;2023-02-16T11:04:35;14.00;65.70
13412;DHT22;67102;51.666;6.880;2023-02-16T11:07:05;13.90;65.50
13412;DHT22;67102;51.666;6.880;2023-02-16T11:09:32;14.00;65.70
13412;DHT22;67102;51.666;6.880;2023-02-16T11:11:59;14.00;65.90
13412;DHT22;67102;51.666;6.880;2023-02-16T11:14:27;14.00;66.00
13412;DHT22;67102;51.666;6.880;2023-02-16T11:17:06;14.20;66.10
13412;DHT22;67102;51.666;6.880;2023-02-16T11:19:34;14.20;66.20
13412;DHT22;67102;51.666;6.880;2023-02-16T11:22:01;14.30;66.30
13412;DHT22;67102;51.666;6.880;2023-02-16T11:24:28;14.30;66.20
13412;DHT22;67102;51.666;6.880;2023-02-16T11:27:05;14.50;66.20
13412;DHT22;67102;51.666;6.880;2023-02-16T11:29:33;14.40;66.00
13412;DHT22;67102;51.666;6.880;2023-02-16T11:32:04;14.40;65.90
13412;DHT22;67102;51.666;6.880;2023-02-16T11:34:35;14.40;66.20
13412;DHT22;67102;51.666;6.880;2023-02-16T11:37:09;14.50;66.40
13412;DHT22;67102;51.666;6.880;2023-02-16T11:39:45;14.50;66.60
13412;DHT22;67102;51.666;6.880;2023-02-16T11:42:20;14.50;66.40
13412;DHT22;67102;51.666;6.880;2023-02-16T11:44:53;14.50;66.30
13412;DHT22;67102;51.666;6.880;2023-02-16T11:47:23;14.50;66.30
13412;DHT22;67102;51.666;6.880;2023-02-16T11:50:12;14.50;66.40
13412;DHT22;67102;51.666;6.880;2023-02-16T11:52:44;14.50;66.80
13412;DHT22;67102;51.666;6.880;2023-02-16T11:55:19;14.50;66.70
13412;DHT22;67102;51.666;6.880;2023-02-16T11:57:47;14.50;67.00
13412;DHT22;67102;51.666;6.880;2023-02-16T12:00:15;14.60;67.00
13412;DHT22;67102;51.666;6.880;2023-02-16T12:02:59;14.50;67.20
13412;DHT22;67102;51.666;6.880;2023-02-16T12:05:42;14.50;67.70
13412;DHT22;67102;51.666;6.880;2023-02-16T12:08:38;14.60;67.80
13412;DHT22;67102;51.666;6.880;2023-02-16T12:11:20;14.60;68.10
13412;DHT22;67102;51.666;6.880;2023-02-16T12:14:01;14.60;68.10
13412;DHT22;67102;51.666;6.880;2023-02-16T12:16:37;14.70;68.30
13412;DHT22;67102;51.666;6.880;2023-02-16T12:19:21;14.70;68.40
13412;DHT22;67102;51.666;6.880;2023-02-16T12:21:58;14.80;68.30
13412;DHT22;67102;51.666;6.880;2023-02-16T12:24:41;14.80;68.10
13412;DHT22;67102;51.666;6.880;2023-02-16T12:27:18;14.80;68.10
13412;DHT22;67102;51.666;6.880;2023-02-16T12:29:55;14.90;68.00
13412;DHT22;67102;51.666;6.880;2023-02-16T12:32:36;14.80;67.80
13412;DHT22;67102;51.666;6.880;2023-02-16T12:35:28;14.90;67.80
13412;DHT22;67102;51.666;6.880;2023-02-16T12:38:17;14.90;67.80
13412;DHT22;67102;51.666;6.880;2023-02-16T12:40:56;14.90;67.80
13412;DHT22;67102;51.666;6.880;2023-02-16T12:43:32;14.80;67.80
13412;DHT22;67102;51.666;6.880;2023-02-16T12:46:04;14.90;67.80
13412;DHT22;67102;51.666;6.880;2023-02-16T12:51:08;15.10;66.90
13412;DHT22;67102;51.666;6.880;2023-02-16T12:53:42;15.10;67.60
13412;DHT22;67102;51.666;6.880;2023-02-16T12:56:15;15.10;67.30
13412;DHT22;67102;51.666;6.880;2023-02-16T12:58:46;15.10;66.90
13412;DHT22;67102;51.666;6.880;2023-02-16T13:01:17;15.00;66.60
13412;DHT22;67102;51.666;6.880;2023-02-16T13:03:50;15.00;66.60
13412;DHT22;67102;51.666;6.880;2023-02-16T13:06:22;15.00;66.70
13412;DHT22;67102;51.666;6.880;2023-02-16T13:08:55;14.90;66.80
13412;DHT22;67102;51.666;6.880;2023-02-16T13:11:28;14.90;67.00
13412;DHT22;67102;51.666;6.880;2023-02-16T13:14:00;14.90;66.90
13412;DHT22;67102;51.666;6.880;2023-02-16T13:16:36;14.90;67.00
13412;DHT22;67102;51.666;6.880;2023-02-16T13:19:08;14.90;67.10
13412;DHT22;67102;51.666;6.880;2023-02-16T13:24:43;14.80;67.20
13412;DHT22;67102;51.666;6.880;2023-02-16T13:27:23;14.80;67.40
13412;DHT22;67102;51.666;6.880;2023-02-16T13:30:03;14.90;67.50
13412;DHT22;67102;51.666;6.880;2023-02-16T13:32:59;14.70;67.60
13412;DHT22;67102;51.666;6.880;2023-02-16T13:35:47;14.70;67.60
13412;DHT22;67102;51.666;6.880;2023-02-16T13:41:49;14.70;68.10
13412;DHT22;67102;51.666;6.880;2023-02-16T13:44:24;14.70;68.30
13412;DHT22;67102;51.666;6.880;2023-02-16T13:46:53;14.80;68.10
13412;DHT22;67102;51.666;6.880;2023-02-16T13:49:32;14.70;68.30
13412;DHT22;67102;51.666;6.880;2023-02-16T13:51:59;14.70;68.60
13412;DHT22;67102;51.666;6.880;2023-02-16T13:54:28;14.70;68.20
13412;DHT22;67102;51.666;6.880;2023-02-16T13:56:57;14.80;68.30
13412;DHT22;67102;51.666;6.880;2023-02-16T13:59:59;14.80;68.40
13412;DHT22;67102;51.666;6.880;2023-02-16T14:05:37;14.90;68.50
13412;DHT22;67102;51.666;6.880;2023-02-16T14:08:24;15.00;68.30
13412;DHT22;67102;51.666;6.880;2023-02-16T14:11:09;14.90;68.70
13412;DHT22;67102;51.666;6.880;2023-02-16T14:13:51;15.00;68.90
13412;DHT22;67102;51.666;6.880;2023-02-16T14:16:29;15.00;68.80
13412;DHT22;67102;51.666;6.880;2023-02-16T14:18:58;15.00;68.80
13412;DHT22;67102;51.666;6.880;2023-02-16T14:21:37;15.10;68.70
13412;DHT22;67102;51.666;6.880;2023-02-16T14:24:08;12.70;67.40
13412;DHT22;67102;51.666;6.880;2023-02-16T14:26:51;15.10;69.40
13412;DHT22;67102;51.666;6.880;2023-02-16T14:29:23;15.10;68.70
13412;DHT22;67102;51.666;6.880;2023-02-16T14:31:57;15.10;68.50
13412;DHT22;67102;51.666;6.880;2023-02-16T14:34:28;15.10;68.30
13412;DHT22;67102;51.666;6.880;2023-02-16T14:37:19;15.10;68.10
13412;DHT22;67102;51.666;6.880;2023-02-16T14:39:52;15.10;68.60
13412;DHT22;67102;51.666;6.880;2023-02-16T14:42:28;15.00;68.20
13412;DHT22;67102;51.666;6.880;2023-02-16T14:45:20;15.00;69.00
13412;DHT22;67102;51.666;6.880;2023-02-16T14:48:01;15.00;69.70
13412;DHT22;67102;51.666;6.880;2023-02-16T14:50:45;14.90;69.20
13412;DHT22;67102;51.666;6.880;2023-02-16T14:53:35;14.90;69.50
13412;DHT22;67102;51.666;6.880;2023-02-16T14:56:29;14.80;69.80
13412;DHT22;67102;51.666;6.880;2023-02-16T14:59:03;14.80;69.90
13412;DHT22;67102;51.666;6.880;2023-02-16T15:01:39;14.80;69.40
13412;DHT22;67102;51.666;6.880;2023-02-16T15:04:07;14.80;69.90
13412;DHT22;67102;51.666;6.880;2023-02-16T15:06:37;14.80;69.30
13412;DHT22;67102;51.666;6.880;2023-02-16T15:09:12;14.90;69.60
13412;DHT22;67102;51.666;6.880;2023-02-16T15:11:46;14.70;69.50
13412;DHT22;67102;51.666;6.880;2023-02-16T15:14:14;14.70;69.50
13412;DHT22;67102;51.666;6.880;2023-02-16T15:16:43;14.70;69.50
13412;DHT22;67102;51.666;6.880;2023-02-16T15:19:15;14.70;69.50
13412;DHT22;67102;51.666;6.880;2023-02-16T15:21:42;14.70;69.70
13412;DHT22;67102;51.666;6.880;2023-02-16T15:24:20;14.70;69.70
13412;DHT22;67102;51.666;6.880;2023-02-16T15:26:53;14.70;70.30
13412;DHT22;67102;51.666;6.880;2023-02-16T15:29:22;14.70;70.00
13412;DHT22;67102;51.666;6.880;2023-02-16T15:31:51;14.70;69.90
13412;DHT22;67102;51.666;6.880;2023-02-16T15:34:26;14.70;70.00
13412;DHT22;67102;51.666;6.880;2023-02-16T15:36:54;14.70;70.40
13412;DHT22;67102;51.666;6.880;2023-02-16T15:39:26;14.70;70.20
13412;DHT22;67102;51.666;6.880;2023-02-16T15:42:02;14.70;70.50
13412;DHT22;67102;51.666;6.880;2023-02-16T15:44:36;14.70;70.40
13412;DHT22;67102;51.666;6.880;2023-02-16T15:47:07;14.70;70.20
13412;DHT22;67102;51.666;6.880;2023-02-16T15:49:34;14.80;71.60
13412;DHT22;67102;51.666;6.880;2023-02-16T15:52:01;14.90;71.60
13412;DHT22;67102;51.666;6.880;2023-02-16T15:54:29;14.90;72.10
13412;DHT22;67102;51.666;6.880;2023-02-16T15:56:57;14.90;72.30
13412;DHT22;67102;51.666;6.880;2023-02-16T15:59:29;15.10;72.30
13412;DHT22;67102;51.666;6.880;2023-02-16T16:01:59;15.10;71.90
13412;DHT22;67102;51.666;6.880;2023-02-16T16:04:27;15.20;71.10
13412;DHT22;67102;51.666;6.880;2023-02-16T16:06:56;15.20;70.20
13412;DHT22;67102;51.666;6.880;2023-02-16T16:09:24;15.30;69.70
13412;DHT22;67102;51.666;6.880;2023-02-16T16:11:55;15.30;69.30
13412;DHT22;67102;51.666;6.880;2023-02-16T16:14:23;15.20;69.00